Decoded Metar for LERS (REUS in SPAIN) (IATA:REU) | Meteo·Mobile Aviation Weather
aviador You're here:

LERS Decoded Metar

REUS in SPAIN
Report Time2020-02-18 21:00:00
UTC Time2020-02-18 21:11:08
Flight Rules vfr VFR
Wind020° at 04 kt
W.Decomp.*RWY 07: 2.6 kt HW 3.1 kt LCW
Visibility9999 m
Phenomena:N/A
Clouds:N/A
Expected CloudBase > 1,600 ft AGL from Temp-Dew spread
CeilingNone
Temp07°C (ISA -8)
Dew Point03°C (76% RH)
AAT4.1°C
QNH1031 hPa
Density Alt-1,158 ft
Elevation249 ft
Report Wrong Elevation
Raw Report
METAR LERS 182100Z 02004KT CAVOK 07/03 Q1031=

Extra information for LERS:More info

Metar Taf Metar & Taf Last 4 Metars F.Rules Stats Wind Profile Meteogram Temp Stats Airport Information Weather charts Add Link Nearby VenuesMetar ALERT Operation Metar Decoded Social comments

Miami platja webcam
Mas La Palomera